Time;durP1;ratioP1;P1;durP2;ratioP2;P2;SDS_P1;SDS_P2;PMS_P1;PMS_P2;Temp;Humidity;BMP_temperature;BMP_pressure;BME280_temperature;BME280_humidity;BME280_pressure;Samples;Min_cycle;Max_cycle;Signal;HPM_P1;HPM_P2
2022/03/26 00:00:31;;;;;;;36.63;32.83;;;;;;;8.87;52.87;99721.59;4980345;28;102580;-61
2022/03/26 00:03:14;;;;;;;31.10;28.10;;;;;;;9.12;52.63;99711.53;4980002;28;102703;-61
2022/03/26 00:05:44;;;;;;;32.15;28.73;;;;;;;9.48;52.02;99717.56;4978156;28;103687;-62
2022/03/26 00:08:13;;;;;;;33.50;30.10;;;;;;;9.45;52.06;99720.38;4980934;28;103302;-59
2022/03/26 00:10:41;;;;;;;31.10;28.02;;;;;;;9.56;51.82;99718.00;4983067;28;103073;-59
2022/03/26 00:13:10;;;;;;;28.25;25.55;;;;;;;9.58;51.52;99716.16;4981803;28;104206;-59
2022/03/26 00:15:38;;;;;;;29.73;26.83;;;;;;;9.73;50.94;99710.06;4963956;28;104152;-58
2022/03/26 00:18:07;;;;;;;35.03;31.52;;;;;;;9.38;51.96;99713.69;4977868;28;103224;-58
2022/03/26 00:20:36;;;;;;;32.13;28.77;;;;;;;9.48;51.58;99717.56;4959919;28;103301;-58
2022/03/26 00:23:04;;;;;;;28.15;25.27;;;;;;;9.64;51.49;99718.47;4980121;28;104091;-59
2022/03/26 00:25:32;;;;;;;28.73;26.02;;;;;;;9.53;51.90;99712.91;4979798;28;102991;-59
2022/03/26 00:28:00;;;;;;;30.67;27.52;;;;;;;9.57;51.11;99711.78;4980210;28;103202;-59
2022/03/26 00:30:28;;;;;;;32.67;29.35;;;;;;;9.50;52.00;99720.09;4975503;28;102644;-58
2022/03/26 00:32:56;;;;;;;33.75;30.35;;;;;;;9.04;52.86;99722.44;4961221;28;103940;-58
2022/03/26 00:35:24;;;;;;;29.23;26.52;;;;;;;9.35;52.28;99719.09;4980123;28;104375;-59
2022/03/26 00:37:53;;;;;;;29.50;26.60;;;;;;;9.52;51.62;99716.47;4980217;28;104079;-59
2022/03/26 00:40:25;;;;;;;34.35;30.70;;;;;;;9.06;52.86;99711.84;4978187;28;103769;-58
2022/03/26 00:42:53;;;;;;;28.52;25.83;;;;;;;9.36;52.28;99722.59;4960326;28;103901;-59
2022/03/26 00:45:21;;;;;;;31.33;28.33;;;;;;;9.39;52.00;99728.59;4977486;28;104126;-59
2022/03/26 00:47:49;;;;;;;36.72;32.85;;;;;;;8.88;53.40;99731.19;4979443;28;104291;-59
2022/03/26 00:50:18;;;;;;;35.08;31.65;;;;;;;8.62;53.98;99729.81;4977008;28;102649;-58
2022/03/26 00:52:47;;;;;;;37.00;33.23;;;;;;;8.45;54.45;99721.91;4981110;28;103816;-59
2022/03/26 00:55:16;;;;;;;28.60;25.90;;;;;;;8.97;53.55;99720.19;4959396;28;104142;-59
2022/03/26 00:57:47;;;;;;;32.87;29.57;;;;;;;8.93;52.99;99729.19;4979639;28;103228;-59
2022/03/26 01:00:15;;;;;;;31.40;28.40;;;;;;;8.98;52.81;99721.91;4979662;28;102605;-58
2022/03/26 01:02:43;;;;;;;33.27;29.67;;;;;;;8.53;53.31;99728.47;4981309;28;104113;-58
2022/03/26 01:05:11;;;;;;;34.55;31.15;;;;;;;8.36;54.98;99725.81;4977912;28;103569;-59
2022/03/26 01:07:40;;;;;;;31.95;28.88;;;;;;;8.77;53.74;99728.22;4952256;28;103212;-59
2022/03/26 01:10:09;;;;;;;34.60;31.13;;;;;;;8.18;55.46;99726.63;4956963;28;102945;-59
2022/03/26 01:12:38;;;;;;;34.85;31.45;;;;;;;8.46;54.31;99726.22;4982267;28;103870;-58
2022/03/26 01:15:08;;;;;;;34.67;31.10;;;;;;;8.23;55.08;99715.88;4982155;28;103997;-59
2022/03/26 01:17:36;;;;;;;30.63;27.60;;;;;;;7.96;56.51;99713.63;4978208;28;103211;-61
2022/03/26 01:20:05;;;;;;;29.52;26.58;;;;;;;8.36;55.54;99715.28;4978253;28;102970;-58
2022/03/26 01:22:33;;;;;;;30.88;27.77;;;;;;;8.40;55.26;99711.56;4978481;28;102793;-59
2022/03/26 01:25:01;;;;;;;31.67;28.52;;;;;;;8.53;54.74;99717.13;4980449;28;103731;-59
2022/03/26 01:27:29;;;;;;;29.00;26.00;;;;;;;8.65;54.39;99717.34;4961816;28;104200;-58
2022/03/26 01:29:59;;;;;;;27.60;24.80;;;;;;;8.71;54.19;99717.06;4981610;28;102739;-61
2022/03/26 01:32:27;;;;;;;25.55;23.15;;;;;;;8.77;54.04;99717.69;4975924;28;103464;-61
2022/03/26 01:34:55;;;;;;;28.92;26.10;;;;;;;8.64;54.34;99718.31;4959079;28;103966;-61
2022/03/26 01:37:24;;;;;;;29.40;26.55;;;;;;;8.60;54.62;99714.09;4979358;28;103200;-59
2022/03/26 01:39:52;;;;;;;35.55;32.03;;;;;;;7.91;56.25;99712.97;4960588;28;102629;-59
2022/03/26 01:42:20;;;;;;;33.88;30.38;;;;;;;8.18;56.01;99714.31;4977945;28;104342;-58
2022/03/26 01:44:48;;;;;;;36.45;32.70;;;;;;;7.76;56.75;99715.44;4969079;28;103864;-61
2022/03/26 01:47:18;;;;;;;35.67;32.00;;;;;;;7.73;57.08;99718.19;4960514;28;102887;-61
2022/03/26 01:49:50;;;;;;;32.75;29.58;;;;;;;7.91;56.07;99720.88;4977466;28;102636;-61
2022/03/26 01:52:18;;;;;;;36.00;32.30;;;;;;;7.42;57.77;99719.56;4976818;28;103683;-60
2022/03/26 01:54:47;;;;;;;34.60;31.00;;;;;;;7.76;56.50;99713.66;4978780;28;103222;-59
2022/03/26 01:57:15;;;;;;;28.80;25.90;;;;;;;7.95;56.62;99711.03;4979114;28;103228;-61
2022/03/26 01:59:44;;;;;;;30.52;27.63;;;;;;;8.12;55.75;99706.72;4980793;28;102487;-61
2022/03/26 02:02:13;;;;;;;34.13;30.67;;;;;;;7.86;55.92;99703.59;4974330;28;103872;-58
2022/03/26 02:04:42;;;;;;;34.58;31.27;;;;;;;7.37;58.58;99716.28;4979671;28;103808;-60
2022/03/26 02:07:10;;;;;;;36.08;32.40;;;;;;;7.25;58.30;99716.78;4979042;28;103507;-58
2022/03/26 02:09:38;;;;;;;37.25;33.47;;;;;;;7.37;57.69;99721.53;4977373;28;102613;-60
2022/03/26 02:12:23;;;;;;;33.33;29.98;;;;;;;7.49;58.24;99731.50;4979692;28;103892;-58
2022/03/26 02:14:51;;;;;;;33.60;30.40;;;;;;;7.61;57.58;99724.84;4979132;28;104087;-60
2022/03/26 02:17:19;;;;;;;33.27;29.90;;;;;;;7.64;57.09;99716.81;4978834;28;103205;-60
2022/03/26 02:19:50;;;;;;;30.73;27.73;;;;;;;7.78;56.95;99718.84;4975387;28;102644;-58
2022/03/26 02:22:20;;;;;;;34.65;31.15;;;;;;;7.70;56.59;99707.81;4976242;28;102655;-58
2022/03/26 02:24:48;;;;;;;34.85;31.35;;;;;;;7.57;56.98;99703.13;4975324;28;103274;-60
2022/03/26 02:27:20;;;;;;;35.80;32.08;;;;;;;7.21;58.49;99709.13;4978624;28;105078;-59
2022/03/26 02:29:49;;;;;;;28.17;25.48;;;;;;;7.63;57.51;99711.66;4959641;28;103003;-60
2022/03/26 02:32:19;;;;;;;36.92;33.08;;;;;;;7.13;58.30;99708.59;4979455;28;102687;-60
2022/03/26 02:34:48;;;;;;;34.15;30.85;;;;;;;7.16;58.38;99709.28;4975069;28;103969;-58
2022/03/26 02:37:30;;;;;;;38.70;34.70;;;;;;;5.91;63.49;99715.25;4978336;28;103214;-60
2022/03/26 02:39:58;;;;;;;33.97;30.55;;;;;;;6.98;60.41;99712.72;4961488;28;102665;-59
2022/03/26 02:42:26;;;;;;;31.50;28.40;;;;;;;7.43;58.54;99710.75;4960245;28;104050;-60
2022/03/26 02:44:54;;;;;;;30.73;27.80;;;;;;;7.45;58.32;99714.16;4976760;28;103842;-60
2022/03/26 02:47:23;;;;;;;36.28;32.50;;;;;;;6.97;59.73;99717.09;4961272;28;104386;-60
2022/03/26 02:49:51;;;;;;;29.85;26.88;;;;;;;7.40;58.97;99712.66;4979299;28;102830;-60
2022/03/26 02:52:19;;;;;;;36.47;32.85;;;;;;;7.05;60.03;99713.28;4959588;28;103718;-59
2022/03/26 02:54:48;;;;;;;32.90;29.73;;;;;;;7.22;58.51;99711.66;4978728;28;102971;-60
2022/03/26 02:57:16;;;;;;;34.10;30.65;;;;;;;6.88;60.62;99712.22;4978200;28;103221;-60
2022/03/26 02:59:44;;;;;;;33.72;30.50;;;;;;;6.95;60.48;99702.34;4978312;28;102848;-60
2022/03/26 03:02:12;;;;;;;32.95;29.65;;;;;;;7.33;58.59;99705.94;4973074;28;102719;-60
2022/03/26 03:04:40;;;;;;;36.63;32.72;;;;;;;6.70;60.44;99713.00;4976845;28;104146;-58
2022/03/26 03:07:08;;;;;;;32.60;29.30;;;;;;;7.16;59.39;99716.34;4978979;28;103762;-60
2022/03/26 03:09:36;;;;;;;30.30;27.40;;;;;;;7.35;58.41;99710.25;4961343;28;102667;-58
2022/03/26 03:12:08;;;;;;;29.90;26.85;;;;;;;7.51;57.93;99707.78;4977889;28;103222;-60
2022/03/26 03:14:37;;;;;;;34.83;31.15;;;;;;;7.18;58.66;99712.72;4958442;28;104191;-58
2022/03/26 03:17:06;;;;;;;28.67;25.98;;;;;;;7.42;58.24;99706.41;4960730;28;103941;-60
2022/03/26 03:19:34;;;;;;;29.37;26.50;;;;;;;7.53;57.37;99701.53;4979040;28;102556;-58
2022/03/26 03:22:03;;;;;;;30.07;27.17;;;;;;;7.55;57.15;99710.19;4978696;28;104396;-58
2022/03/26 03:24:31;;;;;;;29.13;26.27;;;;;;;7.59;57.23;99698.63;4976095;28;104080;-59
2022/03/26 03:26:59;;;;;;;27.50;24.70;;;;;;;7.64;57.21;99708.06;4975816;28;103302;-58
2022/03/26 03:29:28;;;;;;;38.73;34.60;;;;;;;6.87;59.11;99699.19;4978515;28;102721;-58
2022/03/26 03:31:56;;;;;;;36.20;32.70;;;;;;;6.36;62.18;99708.25;4979116;28;104050;-59
2022/03/26 03:34:24;;;;;;;27.83;25.13;;;;;;;7.10;59.45;99696.44;4959482;28;103225;-60
2022/03/26 03:36:53;;;;;;;37.35;33.55;;;;;;;6.41;61.31;99703.66;4959020;28;103214;-60
2022/03/26 03:39:22;;;;;;;34.40;30.98;;;;;;;6.85;60.07;99703.63;4977764;28;102577;-60
2022/03/26 03:41:50;;;;;;;28.00;25.35;;;;;;;6.95;59.90;99697.06;4978402;28;103563;-60
2022/03/26 03:44:18;;;;;;;28.95;25.92;;;;;;;7.24;58.35;99699.31;4974181;28;103764;-59
2022/03/26 03:46:47;;;;;;;29.35;26.45;;;;;;;7.17;58.98;99697.88;4977002;28;103342;-58
2022/03/26 03:49:18;;;;;;;38.30;33.75;;;;;;;6.69;59.85;99702.53;4977474;28;102663;-60
2022/03/26 03:51:46;;;;;;;28.37;25.67;;;;;;;6.98;59.44;99699.56;4979544;28;103871;-60
2022/03/26 03:54:14;;;;;;;35.88;32.25;;;;;;;6.26;61.89;99698.19;4977526;28;103253;-60
2022/03/26 03:56:42;;;;;;;34.30;31.00;;;;;;;6.05;63.41;99702.47;4981607;28;104113;-60
2022/03/26 03:59:12;;;;;;;37.57;33.73;;;;;;;6.16;61.62;99695.03;4968523;28;102848;-58
2022/03/26 04:01:40;;;;;;;29.17;26.20;;;;;;;6.68;60.05;99693.81;4982930;28;103001;-59
2022/03/26 04:04:10;;;;;;;35.17;31.80;;;;;;;6.54;60.66;99696.13;4981774;28;103745;-60
2022/03/26 04:06:38;;;;;;;28.25;25.55;;;;;;;6.84;59.84;99696.66;4978551;28;102990;-59
2022/03/26 04:09:06;;;;;;;38.97;34.88;;;;;;;5.90;62.04;99697.78;4962832;28;104003;-60
2022/03/26 04:11:34;;;;;;;32.13;28.92;;;;;;;6.28;61.79;99699.81;4981385;28;102712;-60
2022/03/26 04:14:02;;;;;;;36.60;32.80;;;;;;;6.04;61.07;99698.13;4963466;28;104416;-60
2022/03/26 04:16:30;;;;;;;36.38;32.58;;;;;;;5.60;64.31;99696.28;4979545;28;103332;-60
2022/03/26 04:18:58;;;;;;;31.15;27.98;;;;;;;6.19;61.53;99705.41;4964751;28;102665;-59
2022/03/26 04:21:28;;;;;;;33.30;29.90;;;;;;;6.55;60.60;99702.25;4981965;28;102920;-59
2022/03/26 04:23:56;;;;;;;37.75;33.95;;;;;;;5.91;61.54;99704.75;4979145;28;103764;-58
2022/03/26 04:26:24;;;;;;;33.55;30.23;;;;;;;6.17;61.81;99707.25;4980347;28;104177;-58
2022/03/26 04:28:52;;;;;;;32.90;29.67;;;;;;;6.27;61.78;99700.72;4961169;28;102954;-59
2022/03/26 04:31:20;;;;;;;32.92;29.63;;;;;;;6.51;60.41;99701.53;4980549;28;102676;-60
2022/03/26 04:33:50;;;;;;;33.00;29.83;;;;;;;6.32;61.53;99704.00;4963309;28;103603;-61
2022/03/26 04:36:18;;;;;;;31.50;28.42;;;;;;;6.49;61.15;99702.47;4978745;28;102711;-59
2022/03/26 04:38:48;;;;;;;27.60;25.00;;;;;;;6.67;59.75;99709.63;4981946;28;102722;-58
2022/03/26 04:41:16;;;;;;;30.15;27.02;;;;;;;6.70;59.53;99706.88;4980094;28;103541;-59
2022/03/26 04:43:47;;;;;;;35.50;31.85;;;;;;;6.48;60.32;99701.66;4980850;28;103216;-59
2022/03/26 04:46:15;;;;;;;33.15;29.77;;;;;;;6.48;60.33;99706.03;4959845;28;103327;-59
2022/03/26 04:48:45;;;;;;;36.47;32.67;;;;;;;6.38;60.68;99711.66;4981298;28;102896;-60
2022/03/26 04:51:14;;;;;;;37.80;33.97;;;;;;;5.61;64.33;99721.59;4981202;28;103970;-59
2022/03/26 04:53:42;;;;;;;34.25;30.65;;;;;;;6.17;61.92;99723.00;4981091;28;104120;-58
2022/03/26 04:56:11;;;;;;;36.90;33.05;;;;;;;5.78;63.25;99712.19;4960447;28;103830;-59
2022/03/26 04:58:39;;;;;;;35.60;31.77;;;;;;;5.71;63.84;99717.72;4980295;28;102656;-59
2022/03/26 05:01:07;;;;;;;36.72;32.92;;;;;;;5.42;63.73;99715.31;4979923;28;103469;-59
2022/03/26 05:03:35;;;;;;;36.43;32.73;;;;;;;5.52;63.87;99714.06;4961129;28;104508;-59
2022/03/26 05:06:03;;;;;;;38.20;34.28;;;;;;;5.28;65.47;99728.03;4958722;28;104677;-59
2022/03/26 05:08:32;;;;;;;29.45;26.55;;;;;;;6.00;62.71;99724.53;4979367;28;102732;-60
2022/03/26 05:11:00;;;;;;;30.83;27.83;;;;;;;6.24;61.14;99719.22;4980247;28;103545;-60
2022/03/26 05:13:29;;;;;;;26.50;23.80;;;;;;;6.37;60.54;99720.44;4977573;28;103424;-59
2022/03/26 05:15:57;;;;;;;34.00;30.70;;;;;;;6.09;61.56;99724.22;4961136;28;103222;-60
2022/03/26 05:18:26;;;;;;;35.88;32.20;;;;;;;5.50;63.58;99729.00;4977896;28;103007;-59
2022/03/26 05:20:56;;;;;;;34.90;31.40;;;;;;;5.78;62.85;99727.09;4980376;28;103823;-59
2022/03/26 05:23:25;;;;;;;27.05;24.48;;;;;;;6.15;61.95;99730.06;4959683;28;104654;-59
2022/03/26 05:25:53;;;;;;;32.85;29.42;;;;;;;6.29;60.96;99733.00;4959126;28;103195;-61
2022/03/26 05:28:22;;;;;;;34.97;31.40;;;;;;;6.19;60.70;99731.66;4977984;28;102669;-61
2022/03/26 05:30:54;;;;;;;35.10;31.50;;;;;;;6.11;61.14;99733.72;4980283;28;102690;-59
2022/03/26 05:33:22;;;;;;;36.40;32.60;;;;;;;5.97;61.98;99736.00;4978158;28;103672;-59
2022/03/26 05:35:50;;;;;;;34.67;31.10;;;;;;;6.11;62.16;99733.72;4980082;28;103222;-60
2022/03/26 05:38:18;;;;;;;32.67;29.37;;;;;;;6.26;61.19;99746.25;4971977;28;102864;-58
2022/03/26 05:40:46;;;;;;;36.60;32.85;;;;;;;6.12;61.47;99747.72;4978184;28;104019;-59
2022/03/26 05:43:14;;;;;;;38.92;34.22;;;;;;;5.52;64.29;99753.38;4978839;28;103291;-58
2022/03/26 05:45:42;;;;;;;35.08;31.45;;;;;;;5.93;62.70;99754.53;4978222;28;103229;-58
2022/03/26 05:48:12;;;;;;;29.52;26.67;;;;;;;6.18;62.01;99756.19;4980418;28;103225;-58
2022/03/26 05:50:41;;;;;;;26.65;24.08;;;;;;;6.48;60.72;99750.69;4978822;28;104061;-59
2022/03/26 05:53:12;;;;;;;27.60;25.00;;;;;;;6.60;60.69;99752.81;4979108;28;104064;-58
2022/03/26 05:55:39;;;;;;;35.80;32.17;;;;;;;6.42;60.92;99764.91;4964291;28;104115;-58
2022/03/26 05:58:08;;;;;;;36.33;32.60;;;;;;;6.16;62.09;99767.66;4964711;28;102619;-58
2022/03/26 06:00:37;;;;;;;35.63;31.92;;;;;;;6.24;62.31;99763.81;4976798;28;103716;-58
2022/03/26 06:03:05;;;;;;;37.08;33.17;;;;;;;6.16;62.29;99773.75;4961551;28;104120;-59
2022/03/26 06:05:35;;;;;;;32.08;28.88;;;;;;;6.48;62.02;99766.44;4977501;28;104104;-59
2022/03/26 06:08:03;;;;;;;32.30;29.10;;;;;;;6.68;61.13;99771.75;4961096;28;102695;-58
2022/03/26 06:10:31;;;;;;;29.10;26.20;;;;;;;6.83;60.79;99781.63;4979992;28;103794;-59
2022/03/26 06:12:59;;;;;;;32.47;29.23;;;;;;;6.83;61.17;99782.50;4957747;28;104081;-59
2022/03/26 06:15:28;;;;;;;31.38;28.20;;;;;;;7.01;60.53;99796.69;4979118;28;104146;-59
2022/03/26 06:18:13;;;;;;;29.83;26.55;;;;;;;7.17;60.12;99797.75;4973622;28;103825;-59
2022/03/26 06:20:43;;;;;;;34.40;30.70;;;;;;;7.25;59.87;99795.66;4978815;28;102758;-59
2022/03/26 06:23:11;;;;;;;30.30;27.20;;;;;;;7.35;59.14;99797.00;4977894;28;103988;-58
2022/03/26 06:25:39;;;;;;;31.63;28.55;;;;;;;7.54;58.28;99791.81;4978934;28;103446;-59
2022/03/26 06:28:07;;;;;;;34.35;30.65;;;;;;;7.54;59.01;99802.31;4961567;28;102894;-59
2022/03/26 06:30:35;;;;;;;33.58;30.27;;;;;;;7.66;59.05;99796.53;4978418;28;102637;-58
2022/03/26 06:33:03;;;;;;;30.92;27.92;;;;;;;7.81;58.70;99805.53;4975964;28;104385;-58
2022/03/26 06:35:31;;;;;;;41.33;35.13;;;;;;;7.72;60.97;99805.94;4979741;28;104543;-58
2022/03/26 06:38:03;;;;;;;46.97;38.05;;;;;;;7.28;67.71;99819.19;4979105;28;102918;-59
2022/03/26 06:40:31;;;;;;;32.08;28.73;;;;;;;7.81;63.56;99816.03;4976126;28;103802;-60
2022/03/26 06:42:59;;;;;;;31.40;28.30;;;;;;;8.10;62.52;99807.72;4953853;28;104273;-62
2022/03/26 06:45:27;;;;;;;31.77;28.67;;;;;;;8.23;61.25;99808.88;4972795;28;103227;-60
2022/03/26 06:47:55;;;;;;;33.53;30.10;;;;;;;8.26;61.03;99807.88;4956510;28;102748;-60
2022/03/26 06:50:23;;;;;;;30.07;26.97;;;;;;;8.45;60.60;99809.63;4971768;28;103944;-60
2022/03/26 06:52:52;;;;;;;33.42;29.92;;;;;;;8.54;59.72;99811.00;4975531;28;103880;-62
2022/03/26 06:55:24;;;;;;;32.95;29.27;;;;;;;8.61;59.84;99815.06;4957821;28;103203;-60
2022/03/26 06:57:52;;;;;;;29.88;26.92;;;;;;;8.74;58.76;99811.78;4957092;28;102959;-62
2022/03/26 07:00:20;;;;;;;33.10;29.42;;;;;;;8.76;58.41;99810.88;4976247;28;103175;-62
2022/03/26 07:02:48;;;;;;;32.23;28.87;;;;;;;8.97;58.67;99823.84;4970094;28;103574;-63
2022/03/26 07:05:17;;;;;;;31.85;28.63;;;;;;;9.10;58.08;99819.69;4957612;28;104236;-62
2022/03/26 07:07:45;;;;;;;30.77;27.77;;;;;;;9.33;58.01;99826.47;4956943;28;102634;-62
2022/03/26 07:10:13;;;;;;;32.17;28.87;;;;;;;9.46;56.66;99822.28;4959276;28;104012;-62
2022/03/26 07:12:42;;;;;;;30.63;27.40;;;;;;;9.57;56.28;99824.41;4959087;28;104151;-62
2022/03/26 07:15:11;;;;;;;35.90;32.20;;;;;;;9.41;57.80;99826.94;4978606;28;103373;-61
2022/03/26 07:17:40;;;;;;;34.80;31.33;;;;;;;9.53;57.81;99826.34;4961345;28;102879;-63
2022/03/26 07:20:10;;;;;;;29.58;26.77;;;;;;;9.79;55.01;99817.97;4961387;28;104130;-63
2022/03/26 07:22:38;;;;;;;35.13;31.43;;;;;;;9.71;56.29;99820.13;4978178;28;103246;-59
2022/03/26 07:25:08;;;;;;;31.13;28.00;;;;;;;10.12;55.77;99825.03;4979888;28;102738;-62
2022/03/26 07:27:37;;;;;;;30.35;26.35;;;;;;;9.53;53.97;99828.97;4978111;28;102896;-62
2022/03/26 07:30:08;;;;;;;33.10;28.63;;;;;;;9.27;54.09;99832.03;4964267;28;102801;-59
2022/03/26 07:32:37;;;;;;;27.83;25.03;;;;;;;10.05;52.94;99826.31;4981818;28;104414;-60
2022/03/26 07:35:06;;;;;;;28.75;25.73;;;;;;;10.16;53.18;99826.63;4966196;28;103221;-59
2022/03/26 07:37:35;;;;;;;27.77;24.77;;;;;;;10.63;50.38;99824.91;4982122;28;102723;-59
2022/03/26 07:40:04;;;;;;;27.92;24.95;;;;;;;11.09;50.46;99832.94;4966754;28;102748;-60
2022/03/26 07:42:32;;;;;;;30.23;26.92;;;;;;;10.68;49.78;99822.00;4979589;28;104018;-59
2022/03/26 07:45:01;;;;;;;28.02;25.17;;;;;;;10.65;50.76;99823.03;4964790;28;103193;-59
2022/03/26 07:47:30;;;;;;;30.80;26.45;;;;;;;9.86;51.23;99832.53;4984122;28;102801;-59
2022/03/26 07:49:58;;;;;;;29.37;26.13;;;;;;;10.29;50.86;99830.31;4982213;28;103813;-60
2022/03/26 07:52:26;;;;;;;30.00;26.80;;;;;;;11.27;50.18;99832.75;4964302;28;103262;-59
2022/03/26 07:54:54;;;;;;;28.67;25.58;;;;;;;11.50;48.29;99834.06;4981909;28;103219;-59
2022/03/26 07:57:23;;;;;;;28.55;25.52;;;;;;;10.83;49.03;99827.31;4964324;28;102689;-62
2022/03/26 07:59:52;;;;;;;28.45;25.33;;;;;;;11.98;48.45;99825.91;4979893;28;104239;-62
2022/03/26 08:02:20;;;;;;;25.70;23.10;;;;;;;12.86;47.26;99825.66;4981411;28;103965;-63
2022/03/26 08:04:49;;;;;;;28.38;25.50;;;;;;;13.24;47.77;99826.72;4979814;28;103472;-63
2022/03/26 08:07:19;;;;;;;30.60;26.47;;;;;;;12.11;46.57;99829.50;4963228;28;103132;-63
2022/03/26 08:09:48;;;;;;;26.70;23.97;;;;;;;13.41;47.03;99828.28;4964325;28;104130;-63
2022/03/26 08:12:16;;;;;;;29.50;26.25;;;;;;;13.08;45.77;99828.66;4979951;28;103855;-63
2022/03/26 08:14:44;;;;;;;26.30;23.70;;;;;;;13.48;45.70;99834.00;4982481;28;103237;-63
2022/03/26 08:17:12;;;;;;;27.73;24.90;;;;;;;13.92;43.71;99832.72;4981801;28;102817;-59
2022/03/26 08:19:40;;;;;;;26.85;24.10;;;;;;;13.90;43.84;99839.09;4977651;28;103646;-58
2022/03/26 08:22:10;;;;;;;27.40;24.52;;;;;;;13.64;44.65;99835.53;4978871;28;103696;-60
2022/03/26 08:24:38;;;;;;;29.23;25.88;;;;;;;14.09;43.55;99842.19;4960055;28;103269;-59
2022/03/26 08:27:06;;;;;;;28.85;25.85;;;;;;;14.03;42.77;99837.31;4982048;28;102593;-59
2022/03/26 08:29:34;;;;;;;28.85;25.85;;;;;;;13.77;44.49;99843.53;4978647;28;103723;-60
2022/03/26 08:32:04;;;;;;;28.63;25.52;;;;;;;14.55;42.39;99839.03;4963345;28;104107;-60
2022/03/26 08:34:32;;;;;;;27.88;24.95;;;;;;;14.84;43.06;99844.00;4974697;28;104635;-61
2022/03/26 08:37:00;;;;;;;28.52;25.63;;;;;;;14.78;41.62;99836.44;4981784;28;102785;-69
2022/03/26 08:39:30;;;;;;;31.77;25.42;;;;;;;14.17;43.38;99842.53;4981998;28;103544;-60
2022/03/26 08:41:58;;;;;;;30.15;27.00;;;;;;;13.40;44.29;99841.63;4979055;28;103106;-60
2022/03/26 08:44:26;;;;;;;33.25;27.77;;;;;;;13.99;42.64;99849.09;4980401;28;103355;-61
2022/03/26 08:46:54;;;;;;;29.67;26.55;;;;;;;15.27;41.83;99844.34;4975565;28;102743;-61
2022/03/26 08:49:22;;;;;;;29.95;26.85;;;;;;;14.77;42.01;99841.84;4979603;28;102705;-60
2022/03/26 08:51:51;;;;;;;29.02;25.83;;;;;;;15.44;41.06;99846.63;4980459;28;104089;-60
2022/03/26 08:54:19;;;;;;;30.52;26.92;;;;;;;14.97;41.78;99847.47;4961150;28;104118;-61
2022/03/26 08:56:49;;;;;;;29.58;26.58;;;;;;;16.34;41.27;99847.75;4963274;28;102517;-62
2022/03/26 08:59:22;;;;;;;28.70;25.60;;;;;;;16.10;39.78;99847.88;4980002;28;103394;-61
2022/03/26 09:01:50;;;;;;;31.13;27.27;;;;;;;16.09;38.75;99843.50;4978873;28;103969;-63
2022/03/26 09:04:19;;;;;;;31.60;28.20;;;;;;;16.24;41.45;99843.19;4980770;28;103259;-63
2022/03/26 09:06:50;;;;;;;31.65;27.38;;;;;;;17.16;41.14;99836.72;4978475;28;102659;-62
2022/03/26 09:09:18;;;;;;;31.10;27.90;;;;;;;17.32;38.64;99842.50;4960939;28;102967;-65
2022/03/26 09:11:47;;;;;;;32.43;28.93;;;;;;;15.99;41.80;99846.03;4976309;28;104286;-62
2022/03/26 09:14:16;;;;;;;32.30;28.88;;;;;;;15.57;39.97;99844.81;4962471;28;103341;-62
2022/03/26 09:16:45;;;;;;;31.50;28.33;;;;;;;16.55;41.02;99841.66;4943038;28;103306;-62
2022/03/26 09:19:13;;;;;;;30.27;27.27;;;;;;;17.91;38.19;99833.06;4970559;28;103001;-61
2022/03/26 09:21:41;;;;;;;33.83;30.20;;;;;;;15.18;41.76;99844.19;4960802;28;103895;-61
2022/03/26 09:24:10;;;;;;;33.03;29.52;;;;;;;16.18;39.88;99837.47;4937289;28;104432;-63
2022/03/26 09:26:38;;;;;;;31.27;28.05;;;;;;;16.32;38.53;99834.56;4967934;28;102994;-60
2022/03/26 09:29:07;;;;;;;31.20;27.80;;;;;;;16.81;39.50;99831.59;4958235;28;103749;-61
2022/03/26 09:31:36;;;;;;;31.85;28.40;;;;;;;15.83;39.88;99839.31;4967674;28;104093;-60
2022/03/26 09:34:05;;;;;;;33.47;29.77;;;;;;;15.25;41.01;99838.31;4967478;28;103245;-61
2022/03/26 09:36:33;;;;;;;31.97;28.70;;;;;;;16.31;41.08;99824.84;4967990;28;103054;-60
2022/03/26 09:39:04;;;;;;;31.30;28.05;;;;;;;18.05;37.83;99817.69;4966846;28;102711;-61
2022/03/26 09:41:36;;;;;;;33.40;29.77;;;;;;;18.60;37.68;99817.31;4968090;28;103927;-61
2022/03/26 09:44:05;;;;;;;34.28;29.75;;;;;;;18.10;37.69;99812.78;4966905;28;103168;-61
2022/03/26 09:46:37;;;;;;;32.70;29.20;;;;;;;16.93;39.36;99811.88;4939485;28;103005;-63
2022/03/26 09:49:09;;;;;;;32.30;29.02;;;;;;;18.25;37.75;99806.09;4954095;28;102957;-63
2022/03/26 09:51:37;;;;;;;33.38;30.02;;;;;;;16.51;38.75;99816.16;4972836;28;103759;-63
2022/03/26 09:54:06;;;;;;;33.72;30.13;;;;;;;16.42;39.61;99814.19;4969469;28;103228;-61
2022/03/26 09:56:34;;;;;;;33.37;30.07;;;;;;;18.01;37.54;99805.53;4970962;28;103949;-61
2022/03/26 09:59:02;;;;;;;33.33;29.75;;;;;;;18.65;37.46;99807.03;4971458;28;103645;-61
2022/03/26 10:01:31;;;;;;;33.47;29.88;;;;;;;18.66;36.69;99800.72;4971707;28;103287;-61
2022/03/26 10:04:11;;;;;;;32.88;29.42;;;;;;;18.15;37.49;99803.38;4969507;28;103177;-64
2022/03/26 10:06:48;;;;;;;34.78;31.17;;;;;;;17.59;37.20;99802.88;4955092;28;102709;-64
2022/03/26 10:09:37;;;;;;;33.97;30.38;;;;;;;18.75;36.13;99799.88;4942903;28;104215;-63
2022/03/26 10:12:07;;;;;;;33.65;30.20;;;;;;;18.83;36.19;99797.38;4947774;28;104097;-64
2022/03/26 10:14:41;;;;;;;35.88;32.00;;;;;;;18.02;36.28;99793.88;4970289;28;103225;-63
2022/03/26 10:17:17;;;;;;;34.45;30.77;;;;;;;18.69;35.83;99797.75;4968221;28;102710;-64
2022/03/26 10:19:49;;;;;;;35.17;31.48;;;;;;;19.24;36.42;99792.78;4971243;28;103592;-64
2022/03/26 10:22:43;;;;;;;35.80;31.60;;;;;;;17.80;35.91;99784.16;4953638;28;104093;-63
2022/03/26 10:25:13;;;;;;;31.70;28.45;;;;;;;19.47;36.62;99775.50;4954374;28;103211;-61
2022/03/26 10:27:44;;;;;;;36.30;32.38;;;;;;;18.99;35.25;99787.00;4970920;28;102845;-60
2022/03/26 10:30:14;;;;;;;34.70;31.00;;;;;;;17.80;37.04;99785.00;4969503;28;104065;-61
2022/03/26 10:32:45;;;;;;;33.72;30.13;;;;;;;17.37;37.30;99785.06;4944393;28;103293;-60
2022/03/26 10:35:21;;;;;;;36.70;31.00;;;;;;;16.86;37.34;99785.84;4971015;28;103354;-61
2022/03/26 10:37:56;;;;;;;37.85;31.77;;;;;;;17.69;37.00;99776.19;4969814;28;103256;-60
2022/03/26 10:40:30;;;;;;;35.37;31.57;;;;;;;17.09;37.20;99782.13;4970923;28;102735;-60
2022/03/26 10:43:03;;;;;;;33.60;29.73;;;;;;;18.01;36.33;99781.47;4969184;28;104004;-60
2022/03/26 10:45:34;;;;;;;32.33;28.92;;;;;;;19.46;36.17;99769.28;4970083;28;103896;-60
2022/03/26 10:48:07;;;;;;;32.08;28.92;;;;;;;20.38;35.44;99761.53;4967620;28;103897;-60
2022/03/26 10:50:38;;;;;;;34.50;31.00;;;;;;;20.64;33.56;99759.84;4952198;28;103684;-60
2022/03/26 10:53:13;;;;;;;32.97;29.67;;;;;;;20.66;34.37;99755.19;4968692;28;103281;-60
2022/03/26 10:55:43;;;;;;;35.35;31.55;;;;;;;20.80;35.76;99760.00;4956115;28;103196;-60
2022/03/26 10:58:13;;;;;;;35.58;32.15;;;;;;;20.87;33.84;99758.44;4950254;28;102844;-60
2022/03/26 11:00:43;;;;;;;33.95;30.25;;;;;;;19.96;33.15;99744.94;4967366;28;103897;-60
2022/03/26 11:03:11;;;;;;;31.67;28.42;;;;;;;20.99;33.26;99751.00;4961061;28;103282;-61
2022/03/26 11:05:42;;;;;;;34.47;30.25;;;;;;;20.42;33.70;99749.47;4964469;28;103225;-62
2022/03/26 11:08:13;;;;;;;32.57;29.07;;;;;;;21.37;31.14;99746.22;4973403;28;103471;-62
2022/03/26 11:10:45;;;;;;;30.33;27.23;;;;;;;20.92;30.74;99739.16;4957326;28;102774;-63
2022/03/26 11:13:15;;;;;;;30.52;27.42;;;;;;;19.22;30.01;99746.56;4971621;28;103298;-63
2022/03/26 11:15:49;;;;;;;28.75;25.95;;;;;;;20.08;29.41;99735.75;4974538;28;103229;-63
2022/03/26 11:18:31;;;;;;;28.38;25.25;;;;;;;19.13;31.07;99747.38;4961845;28;103127;-64
2022/03/26 11:21:32;;;;;;;27.15;24.45;;;;;;;20.71;30.00;99736.78;4975597;28;104609;-64
2022/03/26 11:24:26;;;;;;;27.67;24.97;;;;;;;21.54;28.12;99730.22;4974013;28;103697;-64